Time;durP1;ratioP1;P1;durP2;ratioP2;P2;SDS_P1;SDS_P2;PMS_P1;PMS_P2;Temp;Humidity;BMP_temperature;BMP_pressure;BME280_temperature;BME280_humidity;BME280_pressure;Samples;Min_cycle;Max_cycle;Signal;HPM_P1;HPM_P2
2022/07/15 00:00:16;;;;;;;7.13;2.33;;;;;;;;;;5091195;28;20569;-50
2022/07/15 00:02:42;;;;;;;6.33;2.30;;;;;;;;;;5093049;28;20619;-49
2022/07/15 00:05:09;;;;;;;4.97;1.97;;;;;;;;;;5093012;28;20245;-51
2022/07/15 00:07:35;;;;;;;6.93;2.03;;;;;;;;;;5092260;28;20650;-52
2022/07/15 00:10:14;;;;;;;6.50;2.43;;;;;;;;;;5093351;28;20199;-52
2022/07/15 00:12:40;;;;;;;8.50;1.90;;;;;;;;;;5093299;28;20195;-53
2022/07/15 00:15:07;;;;;;;5.93;2.07;;;;;;;;;;5093036;28;20722;-51
2022/07/15 00:17:35;;;;;;;6.43;2.50;;;;;;;;;;5093106;28;20202;-53
2022/07/15 00:20:04;;;;;;;4.50;1.80;;;;;;;;;;5093192;28;20199;-52
2022/07/15 00:22:31;;;;;;;3.83;2.03;;;;;;;;;;5092423;28;20230;-53
2022/07/15 00:24:57;;;;;;;4.27;2.07;;;;;;;;;;5093117;28;20246;-54
2022/07/15 00:27:23;;;;;;;5.13;2.47;;;;;;;;;;5092379;28;20677;-53
2022/07/15 00:29:50;;;;;;;3.20;1.73;;;;;;;;;;5092803;28;20562;-53
2022/07/15 00:32:16;;;;;;;10.40;2.47;;;;;;;;;;5092979;28;20219;-52
2022/07/15 00:34:44;;;;;;;4.97;2.20;;;;;;;;;;5091401;28;20248;-51
2022/07/15 00:37:10;;;;;;;9.83;2.10;;;;;;;;;;5092510;28;20697;-52
2022/07/15 00:39:36;;;;;;;8.23;2.20;;;;;;;;;;5092492;28;20197;-51
2022/07/15 00:42:02;;;;;;;8.30;2.23;;;;;;;;;;5092724;28;20294;-53
2022/07/15 00:44:28;;;;;;;5.27;1.87;;;;;;;;;;5092383;28;20316;-52
2022/07/15 00:46:54;;;;;;;6.27;1.60;;;;;;;;;;5092660;28;20198;-52
2022/07/15 00:49:20;;;;;;;4.70;1.70;;;;;;;;;;5092574;28;20672;-53
2022/07/15 00:51:48;;;;;;;4.73;2.00;;;;;;;;;;5092400;28;20234;-52
2022/07/15 00:54:15;;;;;;;5.93;1.80;;;;;;;;;;5092438;28;20774;-53
2022/07/15 00:56:42;;;;;;;6.97;2.07;;;;;;;;;;5092296;28;20602;-52
2022/07/15 00:59:09;;;;;;;4.63;1.60;;;;;;;;;;5092399;28;20191;-52
2022/07/15 01:01:35;;;;;;;3.70;1.90;;;;;;;;;;5092417;28;20263;-52
2022/07/15 01:04:03;;;;;;;6.07;2.00;;;;;;;;;;5092497;28;20697;-51
2022/07/15 01:06:29;;;;;;;6.93;1.80;;;;;;;;;;5092228;28;20199;-51
2022/07/15 01:08:56;;;;;;;11.47;2.27;;;;;;;;;;5092283;28;20903;-52
2022/07/15 01:11:22;;;;;;;5.57;2.70;;;;;;;;;;5092269;28;20294;-52
2022/07/15 01:13:48;;;;;;;5.97;2.00;;;;;;;;;;5092512;28;20187;-52
2022/07/15 01:16:14;;;;;;;6.03;2.20;;;;;;;;;;5092318;28;20212;-52
2022/07/15 01:18:40;;;;;;;4.70;1.97;;;;;;;;;;5091966;28;20198;-52
2022/07/15 01:21:08;;;;;;;3.60;1.80;;;;;;;;;;5091998;28;20379;-52
2022/07/15 01:23:36;;;;;;;7.90;1.90;;;;;;;;;;5092178;28;20211;-52
2022/07/15 01:26:02;;;;;;;5.67;2.07;;;;;;;;;;5092254;28;20198;-52
2022/07/15 01:28:28;;;;;;;4.73;2.07;;;;;;;;;;5092073;28;20290;-52
2022/07/15 01:30:54;;;;;;;4.33;1.80;;;;;;;;;;5092248;28;20277;-52
2022/07/15 01:33:20;;;;;;;6.47;1.90;;;;;;;;;;5092157;28;20191;-52
2022/07/15 01:35:46;;;;;;;5.10;2.20;;;;;;;;;;5092139;28;20240;-52
2022/07/15 01:38:13;;;;;;;3.90;2.23;;;;;;;;;;5092120;28;20282;-52
2022/07/15 01:40:39;;;;;;;4.47;2.57;;;;;;;;;;5091863;28;20673;-53
2022/07/15 01:43:06;;;;;;;4.43;2.77;;;;;;;;;;5092058;28;20292;-52
2022/07/15 01:45:32;;;;;;;4.60;2.57;;;;;;;;;;5091926;28;20279;-52
2022/07/15 01:47:58;;;;;;;7.27;2.50;;;;;;;;;;5092135;28;20676;-52
2022/07/15 01:50:24;;;;;;;4.33;2.30;;;;;;;;;;5091835;28;20198;-53
2022/07/15 01:52:51;;;;;;;3.70;2.30;;;;;;;;;;5091976;28;20606;-52
2022/07/15 01:55:18;;;;;;;4.90;2.40;;;;;;;;;;5091967;28;20256;-52
2022/07/15 01:57:44;;;;;;;4.70;2.70;;;;;;;;;;5091999;28;20195;-52
2022/07/15 02:00:12;;;;;;;7.43;2.63;;;;;;;;;;5091780;28;20219;-53
2022/07/15 02:02:38;;;;;;;5.53;2.53;;;;;;;;;;5091848;28;20199;-52
2022/07/15 02:05:04;;;;;;;5.23;2.67;;;;;;;;;;5091793;28;20238;-52
2022/07/15 02:07:30;;;;;;;7.47;2.67;;;;;;;;;;5091767;28;20203;-52
2022/07/15 02:09:57;;;;;;;5.17;2.70;;;;;;;;;;5091768;28;20740;-52
2022/07/15 02:12:25;;;;;;;6.37;2.73;;;;;;;;;;5091785;28;20226;-52
2022/07/15 02:14:51;;;;;;;8.87;3.00;;;;;;;;;;5091828;28;20268;-52
2022/07/15 02:17:17;;;;;;;6.43;3.20;;;;;;;;;;5091803;28;20198;-52
2022/07/15 02:19:43;;;;;;;6.20;2.87;;;;;;;;;;5091745;28;20573;-53
2022/07/15 02:22:09;;;;;;;4.90;2.60;;;;;;;;;;5091495;28;20266;-52
2022/07/15 02:24:35;;;;;;;6.83;2.47;;;;;;;;;;5091362;28;20238;-53
2022/07/15 02:27:01;;;;;;;8.57;3.30;;;;;;;;;;5091810;28;20214;-52
2022/07/15 02:29:29;;;;;;;5.60;2.77;;;;;;;;;;5091632;28;20211;-53
2022/07/15 02:31:55;;;;;;;4.60;2.53;;;;;;;;;;5095273;28;20245;-53
2022/07/15 02:34:21;;;;;;;7.90;3.17;;;;;;;;;;5095243;28;20369;-53
2022/07/15 02:36:47;;;;;;;5.00;2.80;;;;;;;;;;5095361;28;20285;-52
2022/07/15 02:39:13;;;;;;;5.67;2.63;;;;;;;;;;5095203;28;20661;-52
2022/07/15 02:41:39;;;;;;;6.63;2.60;;;;;;;;;;5094996;28;20720;-52
2022/07/15 02:44:06;;;;;;;6.40;2.87;;;;;;;;;;5094995;28;20377;-52
2022/07/15 02:46:33;;;;;;;5.60;2.53;;;;;;;;;;5094915;28;20286;-52
2022/07/15 02:48:59;;;;;;;6.33;2.80;;;;;;;;;;5094975;28;20692;-52
2022/07/15 02:51:25;;;;;;;6.73;2.60;;;;;;;;;;5094724;28;20198;-52
2022/07/15 02:53:51;;;;;;;5.27;2.27;;;;;;;;;;5094791;28;20206;-52
2022/07/15 02:56:17;;;;;;;11.00;2.67;;;;;;;;;;5094823;28;20191;-52
2022/07/15 02:58:43;;;;;;;4.00;2.70;;;;;;;;;;5094626;28;20221;-52
2022/07/15 03:01:09;;;;;;;6.07;2.73;;;;;;;;;;5094650;28;20654;-52
2022/07/15 03:03:36;;;;;;;7.20;2.47;;;;;;;;;;5094485;28;20279;-52
2022/07/15 03:06:02;;;;;;;3.87;2.23;;;;;;;;;;5094646;28;20203;-52
2022/07/15 03:08:28;;;;;;;6.40;2.87;;;;;;;;;;5094529;28;20195;-53
2022/07/15 03:10:55;;;;;;;6.23;2.63;;;;;;;;;;5094575;28;20616;-52
2022/07/15 03:13:22;;;;;;;4.03;2.47;;;;;;;;;;5094429;28;20223;-53
2022/07/15 03:15:49;;;;;;;3.37;2.17;;;;;;;;;;5094490;28;20562;-53
2022/07/15 03:18:15;;;;;;;4.20;2.60;;;;;;;;;;5094469;28;20217;-52
2022/07/15 03:20:42;;;;;;;4.27;2.50;;;;;;;;;;5094089;28;20234;-53
2022/07/15 03:23:09;;;;;;;8.60;3.57;;;;;;;;;;5094309;28;20214;-53
2022/07/15 03:25:35;;;;;;;6.70;3.23;;;;;;;;;;5094062;28;20226;-52
2022/07/15 03:28:01;;;;;;;6.60;2.53;;;;;;;;;;5094340;28;20228;-53
2022/07/15 03:30:28;;;;;;;7.40;2.63;;;;;;;;;;5094078;28;20248;-52
2022/07/15 03:32:54;;;;;;;4.70;2.57;;;;;;;;;;5094160;28;20199;-52
2022/07/15 03:35:20;;;;;;;6.40;2.17;;;;;;;;;;5094007;28;20538;-53
2022/07/15 03:37:47;;;;;;;4.70;2.67;;;;;;;;;;5092428;28;20198;-52
2022/07/15 03:40:13;;;;;;;3.87;2.30;;;;;;;;;;5094025;28;20294;-52
2022/07/15 03:42:39;;;;;;;4.87;2.60;;;;;;;;;;5093779;28;20294;-52
2022/07/15 03:45:06;;;;;;;7.13;2.27;;;;;;;;;;5093851;28;20245;-53
2022/07/15 03:47:32;;;;;;;5.50;2.67;;;;;;;;;;5093761;28;20205;-52
2022/07/15 03:49:58;;;;;;;7.47;2.60;;;;;;;;;;5093565;28;20217;-52
2022/07/15 03:52:24;;;;;;;7.43;2.90;;;;;;;;;;5093489;28;20194;-51
2022/07/15 03:54:51;;;;;;;6.77;3.37;;;;;;;;;;5092081;28;20198;-51
2022/07/15 03:57:17;;;;;;;7.70;3.10;;;;;;;;;;5093700;28;20214;-52
2022/07/15 03:59:44;;;;;;;5.70;3.20;;;;;;;;;;5093104;28;20211;-52
2022/07/15 04:02:10;;;;;;;6.23;2.67;;;;;;;;;;5093361;28;20229;-52
2022/07/15 04:04:36;;;;;;;5.53;2.87;;;;;;;;;;5093416;28;20234;-53
2022/07/15 04:07:02;;;;;;;5.47;2.70;;;;;;;;;;5093447;28;20630;-51
2022/07/15 04:09:28;;;;;;;6.27;2.83;;;;;;;;;;5093304;28;20277;-52
2022/07/15 04:11:56;;;;;;;8.53;3.27;;;;;;;;;;5093352;28;20272;-52
2022/07/15 04:14:22;;;;;;;5.20;2.70;;;;;;;;;;5093967;28;20673;-53
2022/07/15 04:16:48;;;;;;;5.83;2.43;;;;;;;;;;5093449;28;20241;-52
2022/07/15 04:19:14;;;;;;;4.87;2.50;;;;;;;;;;5093081;28;20595;-52
2022/07/15 04:21:40;;;;;;;5.60;2.77;;;;;;;;;;5092758;28;20238;-52
2022/07/15 04:24:06;;;;;;;8.93;2.90;;;;;;;;;;5092901;28;20301;-53
2022/07/15 04:26:32;;;;;;;5.80;2.63;;;;;;;;;;5092852;28;20679;-52
2022/07/15 04:28:59;;;;;;;4.60;2.30;;;;;;;;;;5093176;28;20252;-52
2022/07/15 04:31:26;;;;;;;4.67;2.40;;;;;;;;;;5092995;28;20214;-52
2022/07/15 04:33:52;;;;;;;6.77;2.73;;;;;;;;;;5093038;28;20205;-53
2022/07/15 04:36:18;;;;;;;6.77;3.07;;;;;;;;;;5092913;28;20199;-52
2022/07/15 04:38:43;;;;;;;7.40;2.93;;;;;;;;;;5092800;28;20673;-52
2022/07/15 04:41:10;;;;;;;8.17;2.80;;;;;;;;;;5092859;28;20203;-53
2022/07/15 04:43:36;;;;;;;7.00;2.53;;;;;;;;;;5092556;28;20210;-53
2022/07/15 04:46:03;;;;;;;6.23;2.87;;;;;;;;;;5092729;28;20207;-52
2022/07/15 04:51:14;;;;;;;7.50;3.03;;;;;;;;;;5092262;28;20294;-52
2022/07/15 04:53:39;;;;;;;9.87;2.50;;;;;;;;;;5091871;28;20209;-53
2022/07/15 04:56:06;;;;;;;7.03;2.97;;;;;;;;;;5092603;28;20206;-52
2022/07/15 04:58:32;;;;;;;6.50;2.87;;;;;;;;;;5092440;28;20722;-52
2022/07/15 05:00:58;;;;;;;7.10;2.63;;;;;;;;;;5092551;28;20218;-53
2022/07/15 05:03:25;;;;;;;7.03;2.60;;;;;;;;;;5092450;28;20226;-52
2022/07/15 05:05:51;;;;;;;5.07;2.63;;;;;;;;;;5092438;28;20199;-53
2022/07/15 05:08:17;;;;;;;8.83;2.50;;;;;;;;;;5092459;28;20202;-52
2022/07/15 05:10:43;;;;;;;5.60;2.23;;;;;;;;;;5092355;28;20221;-53
2022/07/15 05:13:09;;;;;;;9.10;2.70;;;;;;;;;;5092300;28;20665;-52
2022/07/15 05:15:35;;;;;;;9.87;2.93;;;;;;;;;;5092135;28;20203;-53
2022/07/15 05:18:01;;;;;;;7.10;2.57;;;;;;;;;;5092404;28;20190;-53
2022/07/15 05:20:28;;;;;;;11.47;3.60;;;;;;;;;;5091749;28;20202;-53
2022/07/15 05:22:54;;;;;;;7.23;2.50;;;;;;;;;;5092369;28;20219;-52
2022/07/15 05:25:20;;;;;;;8.17;2.70;;;;;;;;;;5092229;28;20223;-54
2022/07/15 05:27:47;;;;;;;8.93;2.80;;;;;;;;;;5090515;28;20746;-53
2022/07/15 05:30:15;;;;;;;11.93;2.80;;;;;;;;;;5092257;28;20252;-53
2022/07/15 05:32:42;;;;;;;6.80;2.87;;;;;;;;;;5092055;28;20199;-52
2022/07/15 05:35:08;;;;;;;7.97;2.60;;;;;;;;;;5090315;28;20195;-52
2022/07/15 05:37:38;;;;;;;6.10;2.40;;;;;;;;;;5092036;28;20214;-52
2022/07/15 05:40:06;;;;;;;8.00;2.90;;;;;;;;;;5092129;28;20206;-53
2022/07/15 05:42:32;;;;;;;8.70;2.70;;;;;;;;;;5091983;28;20277;-52
2022/07/15 05:44:58;;;;;;;7.20;2.20;;;;;;;;;;5092050;28;20342;-51
2022/07/15 05:47:24;;;;;;;8.33;3.00;;;;;;;;;;5091746;28;20669;-53
2022/07/15 05:49:50;;;;;;;6.17;2.57;;;;;;;;;;5092011;28;20241;-52
2022/07/15 05:52:16;;;;;;;6.47;2.63;;;;;;;;;;5092081;28;20202;-51
2022/07/15 05:54:43;;;;;;;7.20;2.63;;;;;;;;;;5091843;28;20244;-51
2022/07/15 05:57:09;;;;;;;5.90;2.37;;;;;;;;;;5091880;28;20203;-51
2022/07/15 05:59:35;;;;;;;5.97;2.27;;;;;;;;;;5091808;28;20222;-52
2022/07/15 06:02:01;;;;;;;6.87;2.53;;;;;;;;;;5092037;28;20201;-51
2022/07/15 06:04:27;;;;;;;5.93;2.37;;;;;;;;;;5091536;28;20561;-51
2022/07/15 06:06:53;;;;;;;8.53;2.20;;;;;;;;;;5095707;28;20198;-52
2022/07/15 06:09:19;;;;;;;6.07;2.33;;;;;;;;;;5095690;28;20237;-51
2022/07/15 06:11:47;;;;;;;7.43;2.23;;;;;;;;;;5095772;28;20286;-51
2022/07/15 06:14:13;;;;;;;10.27;2.80;;;;;;;;;;5095601;28;20195;-50
2022/07/15 06:16:39;;;;;;;7.10;2.40;;;;;;;;;;5095181;28;20209;-52
2022/07/15 06:19:05;;;;;;;5.63;2.03;;;;;;;;;;5095400;28;20191;-50
2022/07/15 06:21:31;;;;;;;6.83;2.03;;;;;;;;;;5094973;28;20241;-49
2022/07/15 06:23:57;;;;;;;7.57;2.10;;;;;;;;;;5095457;28;20604;-52
2022/07/15 06:26:22;;;;;;;6.33;2.43;;;;;;;;;;5094914;28;20220;-50
2022/07/15 06:28:50;;;;;;;5.80;1.97;;;;;;;;;;5095308;28;20234;-51
2022/07/15 06:31:16;;;;;;;7.23;2.03;;;;;;;;;;5095137;28;20214;-50
2022/07/15 06:33:42;;;;;;;7.30;2.17;;;;;;;;;;5095037;28;20195;-51
2022/07/15 06:36:08;;;;;;;3.97;1.67;;;;;;;;;;5095020;28;20232;-50
2022/07/15 06:38:34;;;;;;;5.50;1.70;;;;;;;;;;5095048;28;20222;-51
2022/07/15 06:41:00;;;;;;;8.50;2.37;;;;;;;;;;5095232;28;20202;-51
2022/07/15 06:43:26;;;;;;;5.73;2.13;;;;;;;;;;5094990;28;20597;-51
2022/07/15 06:45:53;;;;;;;4.17;2.00;;;;;;;;;;5094897;28;20284;-52
2022/07/15 06:48:19;;;;;;;6.07;1.80;;;;;;;;;;5094943;28;20278;-51
2022/07/15 06:50:45;;;;;;;7.43;1.70;;;;;;;;;;5094885;28;20712;-50
2022/07/15 06:53:11;;;;;;;6.50;2.10;;;;;;;;;;5094750;28;20286;-51
2022/07/15 06:55:37;;;;;;;3.30;1.40;;;;;;;;;;5094012;28;20665;-51
2022/07/15 06:58:03;;;;;;;6.77;1.73;;;;;;;;;;5094976;28;20199;-50
2022/07/15 07:00:30;;;;;;;4.33;1.60;;;;;;;;;;5094588;28;20222;-52
2022/07/15 07:02:57;;;;;;;4.43;2.03;;;;;;;;;;5094778;28;20199;-52
2022/07/15 07:05:23;;;;;;;6.37;1.97;;;;;;;;;;5094226;28;20701;-51
2022/07/15 07:07:49;;;;;;;7.70;1.80;;;;;;;;;;5094692;28;20200;-50
2022/07/15 07:10:15;;;;;;;4.57;1.53;;;;;;;;;;5094614;28;20285;-51
2022/07/15 07:12:41;;;;;;;7.23;1.90;;;;;;;;;;5094469;28;20285;-51
2022/07/15 07:15:07;;;;;;;4.70;1.80;;;;;;;;;;5092789;28;20298;-52
2022/07/15 07:17:33;;;;;;;3.63;1.63;;;;;;;;;;5093994;28;20209;-52
2022/07/15 07:20:00;;;;;;;4.47;2.00;;;;;;;;;;5094315;28;20191;-51
2022/07/15 07:22:26;;;;;;;3.73;1.50;;;;;;;;;;5093923;28;20236;-51
2022/07/15 07:24:53;;;;;;;3.47;1.33;;;;;;;;;;5094222;28;20234;-51
2022/07/15 07:27:19;;;;;;;2.73;1.47;;;;;;;;;;5094376;28;20200;-51
2022/07/15 07:29:45;;;;;;;4.30;1.50;;;;;;;;;;5093972;28;20235;-51
2022/07/15 07:32:11;;;;;;;4.00;1.40;;;;;;;;;;5093946;28;20725;-50
2022/07/15 07:34:37;;;;;;;4.30;1.20;;;;;;;;;;5093640;28;20292;-51
2022/07/15 07:37:04;;;;;;;5.20;1.20;;;;;;;;;;5094199;28;20201;-50
2022/07/15 07:39:30;;;;;;;6.23;1.40;;;;;;;;;;5093922;28;20202;-52
2022/07/15 07:41:56;;;;;;;5.00;1.40;;;;;;;;;;5093451;28;20203;-53
2022/07/15 07:44:23;;;;;;;3.17;1.20;;;;;;;;;;5093777;28;20762;-51
2022/07/15 07:46:49;;;;;;;3.80;1.23;;;;;;;;;;5093883;28;20210;-49
2022/07/15 07:49:15;;;;;;;3.10;1.40;;;;;;;;;;5093876;28;20198;-49
2022/07/15 07:51:41;;;;;;;3.73;1.43;;;;;;;;;;5093580;28;20831;-52
2022/07/15 07:54:09;;;;;;;2.63;1.23;;;;;;;;;;5086640;28;20274;-50
2022/07/15 07:56:35;;;;;;;3.73;1.43;;;;;;;;;;5093585;28;20241;-49
2022/07/15 07:59:01;;;;;;;3.20;1.40;;;;;;;;;;5093456;28;20657;-50
2022/07/15 08:01:27;;;;;;;7.07;1.83;;;;;;;;;;5093438;28;20288;-50
2022/07/15 08:03:53;;;;;;;3.70;1.47;;;;;;;;;;5093266;28;20234;-50
2022/07/15 08:06:19;;;;;;;6.10;1.77;;;;;;;;;;5093043;28;20237;-51
2022/07/15 08:08:45;;;;;;;3.33;1.10;;;;;;;;;;5092950;28;20225;-50
2022/07/15 08:11:13;;;;;;;3.60;1.30;;;;;;;;;;5093303;28;20199;-49
2022/07/15 08:13:39;;;;;;;3.50;1.00;;;;;;;;;;5093034;28;20202;-50
2022/07/15 08:16:06;;;;;;;6.73;1.70;;;;;;;;;;5093316;28;20413;-50
2022/07/15 08:18:32;;;;;;;2.73;1.10;;;;;;;;;;5092784;28;20199;-50
2022/07/15 08:20:58;;;;;;;5.37;1.27;;;;;;;;;;5092920;28;20237;-49
2022/07/15 08:23:24;;;;;;;5.23;1.57;;;;;;;;;;5093076;28;20197;-49
2022/07/15 08:25:51;;;;;;;3.13;1.23;;;;;;;;;;5092844;28;20223;-50
2022/07/15 08:28:18;;;;;;;4.90;1.50;;;;;;;;;;5092336;28;20200;-50
2022/07/15 08:30:45;;;;;;;3.60;1.30;;;;;;;;;;5092761;28;20202;-50
2022/07/15 08:33:11;;;;;;;3.93;1.33;;;;;;;;;;5092610;28;20215;-51
2022/07/15 08:35:37;;;;;;;4.17;1.37;;;;;;;;;;5092566;28;20204;-50
2022/07/15 08:38:05;;;;;;;2.97;1.00;;;;;;;;;;5092410;28;20195;-52
2022/07/15 08:40:31;;;;;;;3.83;1.50;;;;;;;;;;5090855;28;20202;-53
2022/07/15 08:42:57;;;;;;;2.43;1.17;;;;;;;;;;5092369;28;20198;-54
2022/07/15 08:45:25;;;;;;;5.60;1.60;;;;;;;;;;5092376;28;20237;-54
2022/07/15 08:47:52;;;;;;;3.30;1.30;;;;;;;;;;5091947;28;20544;-54
2022/07/15 08:50:18;;;;;;;4.33;1.37;;;;;;;;;;5090985;28;20195;-53
2022/07/15 08:52:44;;;;;;;2.87;1.03;;;;;;;;;;5092579;28;20212;-54
2022/07/15 08:55:11;;;;;;;4.03;0.97;;;;;;;;;;5092413;28;20187;-53
2022/07/15 08:57:37;;;;;;;4.33;1.20;;;;;;;;;;5092008;28;20190;-52
2022/07/15 09:00:04;;;;;;;2.13;1.10;;;;;;;;;;5092449;28;20313;-52
2022/07/15 09:02:32;;;;;;;2.90;0.80;;;;;;;;;;5092240;28;20206;-54
2022/07/15 09:05:18;;;;;;;2.43;0.70;;;;;;;;;;5092081;28;20230;-53
2022/07/15 09:07:55;;;;;;;1.90;0.90;;;;;;;;;;5092127;28;20194;-53
2022/07/15 09:10:21;;;;;;;1.73;0.90;;;;;;;;;;5092345;28;20194;-53
2022/07/15 09:12:51;;;;;;;5.23;0.97;;;;;;;;;;5092480;28;20194;-52
2022/07/15 09:15:30;;;;;;;3.77;1.23;;;;;;;;;;5092391;28;20187;-53
2022/07/15 09:18:06;;;;;;;3.60;1.13;;;;;;;;;;5092300;28;20198;-53
2022/07/15 09:20:32;;;;;;;3.03;1.30;;;;;;;;;;5092033;28;20307;-53
2022/07/15 09:22:59;;;;;;;3.13;1.23;;;;;;;;;;5092177;28;20248;-53
2022/07/15 09:25:25;;;;;;;3.70;0.83;;;;;;;;;;5084074;28;20312;-54
2022/07/15 09:27:52;;;;;;;4.37;1.30;;;;;;;;;;5091778;28;20313;-54
2022/07/15 09:36:01;;;;;;;2.73;1.10;;;;;;;;;;5091868;28;20281;-54
2022/07/15 09:38:29;;;;;;;2.73;1.30;;;;;;;;;;5091461;28;20220;-54
2022/07/15 09:40:55;;;;;;;4.10;0.90;;;;;;;;;;5096281;28;20200;-54
2022/07/15 09:43:21;;;;;;;2.53;1.30;;;;;;;;;;5096034;28;20213;-53
2022/07/15 09:45:47;;;;;;;1.30;0.90;;;;;;;;;;5095912;28;20230;-53
2022/07/15 09:48:15;;;;;;;2.43;1.17;;;;;;;;;;5096024;28;20198;-53
2022/07/15 09:50:41;;;;;;;5.13;1.07;;;;;;;;;;5095598;28;20195;-53
2022/07/15 09:53:10;;;;;;;2.53;1.00;;;;;;;;;;5095916;28;20268;-53
2022/07/15 09:55:39;;;;;;;3.60;1.67;;;;;;;;;;5095759;28;20198;-53
2022/07/15 09:58:07;;;;;;;1.37;1.10;;;;;;;;;;5096004;28;20637;-53
2022/07/15 10:00:34;;;;;;;2.60;0.80;;;;;;;;;;5095675;28;20238;-53
2022/07/15 10:03:00;;;;;;;3.10;0.90;;;;;;;;;;5095700;28;20246;-53
2022/07/15 10:05:27;;;;;;;1.87;0.97;;;;;;;;;;5094494;28;20783;-52
2022/07/15 10:07:56;;;;;;;4.30;1.00;;;;;;;;;;5095490;28;20890;-52
2022/07/15 10:10:23;;;;;;;1.87;0.87;;;;;;;;;;5095421;28;20194;-53
2022/07/15 10:12:54;;;;;;;2.00;1.10;;;;;;;;;;5095555;28;20607;-52
2022/07/15 10:15:25;;;;;;;3.33;1.10;;;;;;;;;;5095515;28;20735;-52
2022/07/15 10:17:57;;;;;;;1.30;1.00;;;;;;;;;;5095412;28;20293;-52
2022/07/15 10:20:36;;;;;;;1.97;0.90;;;;;;;;;;5095267;28;20199;-55
2022/07/15 10:23:07;;;;;;;2.17;1.10;;;;;;;;;;5095449;28;20209;-54
2022/07/15 10:25:45;;;;;;;3.67;1.40;;;;;;;;;;5093498;28;20660;-54
2022/07/15 10:28:16;;;;;;;2.07;1.13;;;;;;;;;;5095395;28;20194;-55
2022/07/15 10:30:43;;;;;;;2.90;1.27;;;;;;;;;;5094989;28;20202;-55
2022/07/15 10:33:13;;;;;;;2.50;1.23;;;;;;;;;;5095110;28;20202;-55
2022/07/15 10:35:43;;;;;;;2.77;1.00;;;;;;;;;;5095004;28;20688;-54
2022/07/15 10:38:25;;;;;;;2.37;1.00;;;;;;;;;;5095080;28;20198;-54
2022/07/15 10:41:02;;;;;;;4.23;1.30;;;;;;;;;;5093200;28;20196;-54
2022/07/15 10:43:48;;;;;;;3.43;1.10;;;;;;;;;;5094918;28;20201;-55
2022/07/15 10:46:19;;;;;;;2.87;1.30;;;;;;;;;;5095023;28;20248;-54
2022/07/15 10:48:45;;;;;;;2.77;1.20;;;;;;;;;;5094824;28;20672;-55
2022/07/15 10:51:13;;;;;;;2.07;1.20;;;;;;;;;;5094220;28;20202;-54
2022/07/15 10:53:43;;;;;;;2.80;1.00;;;;;;;;;;5094787;28;20206;-53
2022/07/15 10:56:24;;;;;;;2.27;0.73;;;;;;;;;;5094916;28;20236;-53
2022/07/15 10:59:04;;;;;;;2.73;1.00;;;;;;;;;;5094625;28;20290;-53
2022/07/15 11:01:31;;;;;;;4.27;1.43;;;;;;;;;;5094393;28;20200;-54
2022/07/15 11:04:12;;;;;;;1.33;0.77;;;;;;;;;;5094674;28;20226;-54
2022/07/15 11:06:53;;;;;;;5.13;1.10;;;;;;;;;;5094579;28;20198;-55
2022/07/15 11:09:33;;;;;;;2.53;0.77;;;;;;;;;;5094348;28;20281;-54
2022/07/15 11:12:01;;;;;;;2.27;1.30;;;;;;;;;;5094187;28;20201;-55
2022/07/15 11:14:47;;;;;;;1.33;0.90;;;;;;;;;;5094461;28;20204;-55
2022/07/15 11:17:16;;;;;;;2.00;0.90;;;;;;;;;;5094157;28;20675;-54
2022/07/15 11:19:43;;;;;;;2.07;1.00;;;;;;;;;;5094296;28;20203;-55
2022/07/15 11:22:09;;;;;;;1.90;1.00;;;;;;;;;;5094272;28;20239;-55
2022/07/15 11:24:35;;;;;;;3.87;1.20;;;;;;;;;;5094273;28;20309;-54
2022/07/15 11:27:02;;;;;;;2.47;1.23;;;;;;;;;;5094444;28;20230;-55
2022/07/15 11:29:40;;;;;;;2.63;1.20;;;;;;;;;;5094237;28;20310;-54
2022/07/15 11:32:07;;;;;;;2.50;1.00;;;;;;;;;;5094111;28;20572;-55
2022/07/15 11:34:37;;;;;;;7.17;1.10;;;;;;;;;;5093866;28;20195;-55
2022/07/15 11:37:04;;;;;;;3.47;1.10;;;;;;;;;;5094113;28;20263;-54
2022/07/15 11:39:30;;;;;;;1.90;1.13;;;;;;;;;;5093998;28;20265;-53
2022/07/15 11:44:46;;;;;;;3.27;1.30;;;;;;;;;;5093566;28;20576;-55
2022/07/15 11:47:12;;;;;;;2.53;1.00;;;;;;;;;;5093610;28;20206;-54
2022/07/15 11:49:39;;;;;;;2.80;1.17;;;;;;;;;;5093239;28;20194;-54
2022/07/15 11:52:07;;;;;;;1.87;0.97;;;;;;;;;;5093576;28;20202;-55
2022/07/15 11:54:35;;;;;;;2.03;1.10;;;;;;;;;;5093632;28;20191;-55
2022/07/15 11:57:03;;;;;;;1.93;1.20;;;;;;;;;;5093641;28;20179;-55
2022/07/15 11:59:29;;;;;;;2.93;1.27;;;;;;;;;;5093506;28;20301;-54
2022/07/15 12:02:01;;;;;;;3.07;1.07;;;;;;;;;;5092943;28;20203;-54
2022/07/15 12:04:28;;;;;;;2.07;0.80;;;;;;;;;;5092780;28;20640;-53
2022/07/15 12:06:54;;;;;;;1.87;0.93;;;;;;;;;;5093050;28;20221;-54
2022/07/15 12:09:20;;;;;;;4.17;1.07;;;;;;;;;;5093089;28;20207;-54
2022/07/15 12:11:46;;;;;;;2.40;0.90;;;;;;;;;;5093226;28;20197;-53
2022/07/15 12:14:12;;;;;;;1.70;0.97;;;;;;;;;;5093250;28;20725;-55
2022/07/15 12:16:41;;;;;;;2.37;0.90;;;;;;;;;;5093201;28;20198;-53
2022/07/15 12:19:10;;;;;;;3.00;1.00;;;;;;;;;;5092846;28;20675;-54
2022/07/15 12:21:36;;;;;;;2.37;1.00;;;;;;;;;;5092869;28;20249;-54
2022/07/15 12:24:07;;;;;;;2.00;1.10;;;;;;;;;;5092833;28;20197;-54
2022/07/15 12:26:34;;;;;;;2.03;1.07;;;;;;;;;;5093065;28;20651;-54
2022/07/15 12:29:01;;;;;;;1.43;0.87;;;;;;;;;;5093196;28;20228;-54
2022/07/15 12:31:29;;;;;;;2.40;1.00;;;;;;;;;;5092704;28;20200;-54
2022/07/15 12:33:55;;;;;;;3.63;1.17;;;;;;;;;;5092670;28;20294;-54
2022/07/15 12:36:24;;;;;;;2.37;1.03;;;;;;;;;;5092796;28;20279;-54
2022/07/15 12:39:20;;;;;;;3.80;1.13;;;;;;;;;;5092372;28;20215;-53
2022/07/15 12:41:58;;;;;;;3.63;1.10;;;;;;;;;;5030333;28;20230;-54
2022/07/15 12:44:24;;;;;;;3.33;0.80;;;;;;;;;;5083111;28;20661;-54
2022/07/15 12:46:52;;;;;;;1.60;0.97;;;;;;;;;;5092436;28;20208;-54
2022/07/15 12:49:37;;;;;;;1.37;0.80;;;;;;;;;;5092808;28;20311;-54
2022/07/15 12:52:14;;;;;;;1.07;0.93;;;;;;;;;;5092672;28;20228;-55
2022/07/15 12:54:40;;;;;;;1.80;0.87;;;;;;;;;;5092577;28;20204;-55
2022/07/15 12:57:06;;;;;;;4.47;1.27;;;;;;;;;;5092659;28;20196;-55
2022/07/15 12:59:48;;;;;;;3.27;0.90;;;;;;;;;;5092434;28;20594;-55
2022/07/15 13:02:14;;;;;;;1.77;0.80;;;;;;;;;;5092677;28;20217;-55
2022/07/15 13:04:40;;;;;;;2.53;0.90;;;;;;;;;;5091886;28;20884;-55
2022/07/15 13:07:06;;;;;;;2.70;1.00;;;;;;;;;;5092249;28;20204;-54
2022/07/15 13:09:33;;;;;;;2.60;1.00;;;;;;;;;;5092403;28;20258;-53
2022/07/15 13:12:00;;;;;;;2.57;1.00;;;;;;;;;;5091557;28;20215;-55
2022/07/15 13:14:26;;;;;;;1.70;0.63;;;;;;;;;;5091990;28;20209;-54
2022/07/15 13:16:52;;;;;;;3.17;1.00;;;;;;;;;;5092225;28;20258;-55
2022/07/15 13:19:18;;;;;;;1.77;1.10;;;;;;;;;;5092192;28;20197;-54
2022/07/15 13:21:44;;;;;;;2.70;0.80;;;;;;;;;;5091869;28;20241;-53
2022/07/15 13:24:10;;;;;;;1.77;0.80;;;;;;;;;;5092066;28;20285;-54
2022/07/15 13:26:38;;;;;;;1.30;0.80;;;;;;;;;;5092158;28;20675;-53
2022/07/15 13:29:04;;;;;;;2.00;0.80;;;;;;;;;;5092301;28;20194;-50
2022/07/15 13:31:30;;;;;;;1.97;0.70;;;;;;;;;;5092184;28;20195;-53
2022/07/15 13:33:56;;;;;;;1.73;0.83;;;;;;;;;;5092018;28;20843;-51
2022/07/15 13:36:22;;;;;;;3.70;1.00;;;;;;;;;;5091897;28;20194;-53
2022/07/15 13:38:48;;;;;;;0.83;0.40;;;;;;;;;;5091967;28;21043;-52
2022/07/15 13:41:14;;;;;;;0.60;0.60;;;;;;;;;;5092087;28;20247;-52
2022/07/15 13:43:42;;;;;;;0.93;0.80;;;;;;;;;;5091986;28;20198;-53
2022/07/15 13:46:08;;;;;;;0.67;0.63;;;;;;;;;;5091712;28;20705;-53
2022/07/15 13:48:34;;;;;;;2.20;0.90;;;;;;;;;;5091875;28;20204;-52
2022/07/15 13:53:45;;;;;;;0.87;0.60;;;;;;;;;;5091811;28;20193;-51
2022/07/15 13:56:11;;;;;;;1.57;0.97;;;;;;;;;;5091441;28;20777;-52
2022/07/15 13:58:37;;;;;;;3.17;0.80;;;;;;;;;;5091391;28;20234;-51
2022/07/15 14:01:04;;;;;;;1.20;0.60;;;;;;;;;;5091489;28;20242;-52
2022/07/15 14:03:30;;;;;;;3.13;0.80;;;;;;;;;;5091225;28;20195;-52
2022/07/15 14:05:57;;;;;;;0.90;0.70;;;;;;;;;;5091331;28;20318;-52
2022/07/15 14:08:23;;;;;;;1.37;0.60;;;;;;;;;;5091329;28;20661;-51
2022/07/15 14:10:49;;;;;;;1.37;0.70;;;;;;;;;;5091434;28;20238;-52
2022/07/15 14:13:15;;;;;;;0.90;0.53;;;;;;;;;;5091304;28;20708;-52
2022/07/15 14:15:41;;;;;;;1.20;0.70;;;;;;;;;;5091270;28;20421;-53
2022/07/15 14:18:08;;;;;;;1.70;0.80;;;;;;;;;;5091329;28;20222;-52
2022/07/15 14:20:34;;;;;;;3.37;2.77;;;;;;;;;;5089268;28;20251;-52
2022/07/15 14:23:00;;;;;;;2.90;1.70;;;;;;;;;;5091762;28;20202;-52
2022/07/15 14:25:26;;;;;;;0.50;0.50;;;;;;;;;;5090896;28;20731;-52
2022/07/15 14:27:52;;;;;;;1.07;0.60;;;;;;;;;;5093114;28;20673;-52
2022/07/15 14:30:18;;;;;;;0.57;0.40;;;;;;;;;;5095606;28;20733;-53
2022/07/15 14:32:44;;;;;;;1.13;0.60;;;;;;;;;;5095173;28;20195;-51
2022/07/15 14:35:12;;;;;;;2.10;0.53;;;;;;;;;;5094873;28;20213;-52
2022/07/15 14:37:38;;;;;;;0.53;0.40;;;;;;;;;;5095333;28;20281;-52
2022/07/15 14:40:05;;;;;;;1.17;0.80;;;;;;;;;;5094578;28;20205;-52
2022/07/15 14:42:32;;;;;;;2.30;2.10;;;;;;;;;;5094513;28;20731;-52
2022/07/15 14:44:58;;;;;;;1.43;0.80;;;;;;;;;;5095000;28;20222;-52
2022/07/15 14:47:24;;;;;;;0.90;0.40;;;;;;;;;;5095081;28;20191;-53
2022/07/15 14:49:50;;;;;;;0.43;0.43;;;;;;;;;;5094788;28;20202;-52
2022/07/15 14:52:17;;;;;;;1.33;0.47;;;;;;;;;;5095377;28;20203;-52
2022/07/15 14:54:43;;;;;;;0.40;0.40;;;;;;;;;;5095075;28;20203;-52
2022/07/15 14:57:09;;;;;;;0.97;0.53;;;;;;;;;;5095109;28;20201;-52